Cusick, Washington
Current Conditions -  °F | °C
As of 1:53 AM on Tuesday 21 Oct 2014 (Local Time) from KDEW Reporting Station
Light Rain Light Rain  
Wind Chill: 50°   Ceiling: 2300
Heat Index: 50°   Visibility: 10mi
Dew Point: 46°   Wind: 13mph
Humidity: 86%   Direction: 210°SSW
Pressure: 29.85"   Gusts: NA
Location:  48.34°N, 117.3°W
Report Text: KDEW 210853Z AUTO 21011KT 10SM -RA BKN023 BKN028 OVC060 10/08 A2985 RMK AO2 RAB17 SLP104 P0001 60002 T01000078 51014
Loading
Personal Weather Stations






























Interactive Weather Map New forecast layout! Learn more

10-Day Weather Forecast

Advertisements
Track Severe Weather on mobile